sensor_id;sensor_type;location;lat;lon;timestamp;P1;durP1;ratioP1;P2;durP2;ratioP2
80707;SDS011;70222;49.204;-122.940;2023-10-13T00:00:33;3.67;;;2.30;;
80707;SDS011;70222;49.204;-122.940;2023-10-13T00:03:04;5.00;;;2.50;;
80707;SDS011;70222;49.204;-122.940;2023-10-13T00:05:31;3.85;;;2.33;;
80707;SDS011;70222;49.204;-122.940;2023-10-13T00:10:28;5.82;;;2.55;;
80707;SDS011;70222;49.204;-122.940;2023-10-13T00:12:58;5.20;;;2.63;;
80707;SDS011;70222;49.204;-122.940;2023-10-13T00:15:51;3.03;;;2.33;;
80707;SDS011;70222;49.204;-122.940;2023-10-13T00:18:27;3.85;;;2.00;;
80707;SDS011;70222;49.204;-122.940;2023-10-13T00:21:07;3.30;;;1.95;;
80707;SDS011;70222;49.204;-122.940;2023-10-13T00:23:41;5.75;;;2.60;;
80707;SDS011;70222;49.204;-122.940;2023-10-13T00:26:21;3.55;;;2.50;;
80707;SDS011;70222;49.204;-122.940;2023-10-13T00:28:52;5.15;;;2.20;;
80707;SDS011;70222;49.204;-122.940;2023-10-13T00:31:26;5.43;;;2.35;;
80707;SDS011;70222;49.204;-122.940;2023-10-13T00:33:58;3.90;;;2.25;;
80707;SDS011;70222;49.204;-122.940;2023-10-13T00:36:47;2.60;;;2.17;;
80707;SDS011;70222;49.204;-122.940;2023-10-13T00:39:33;3.20;;;2.17;;
80707;SDS011;70222;49.204;-122.940;2023-10-13T00:42:04;3.90;;;2.17;;
80707;SDS011;70222;49.204;-122.940;2023-10-13T00:44:43;3.78;;;2.40;;
80707;SDS011;70222;49.204;-122.940;2023-10-13T00:47:14;4.45;;;2.45;;
80707;SDS011;70222;49.204;-122.940;2023-10-13T00:50:13;9.52;;;3.15;;
80707;SDS011;70222;49.204;-122.940;2023-10-13T00:52:40;4.07;;;2.72;;
80707;SDS011;70222;49.204;-122.940;2023-10-13T00:55:08;5.10;;;2.58;;
80707;SDS011;70222;49.204;-122.940;2023-10-13T00:57:34;5.43;;;2.85;;
80707;SDS011;70222;49.204;-122.940;2023-10-13T01:00:01;4.43;;;3.00;;
80707;SDS011;70222;49.204;-122.940;2023-10-13T01:02:42;5.75;;;3.33;;
80707;SDS011;70222;49.204;-122.940;2023-10-13T01:05:08;4.97;;;3.55;;
80707;SDS011;70222;49.204;-122.940;2023-10-13T01:07:45;5.20;;;3.30;;
80707;SDS011;70222;49.204;-122.940;2023-10-13T01:12:44;5.90;;;3.10;;
80707;SDS011;70222;49.204;-122.940;2023-10-13T01:15:11;4.38;;;3.40;;
80707;SDS011;70222;49.204;-122.940;2023-10-13T01:17:42;6.55;;;4.18;;
80707;SDS011;70222;49.204;-122.940;2023-10-13T01:20:10;5.93;;;3.65;;
80707;SDS011;70222;49.204;-122.940;2023-10-13T01:22:39;6.50;;;3.40;;
80707;SDS011;70222;49.204;-122.940;2023-10-13T01:25:06;5.00;;;3.58;;
80707;SDS011;70222;49.204;-122.940;2023-10-13T01:27:38;7.90;;;4.68;;
80707;SDS011;70222;49.204;-122.940;2023-10-13T01:30:05;6.07;;;4.30;;
80707;SDS011;70222;49.204;-122.940;2023-10-13T01:32:35;7.80;;;4.40;;
80707;SDS011;70222;49.204;-122.940;2023-10-13T01:35:10;4.63;;;3.38;;
80707;SDS011;70222;49.204;-122.940;2023-10-13T01:37:36;7.15;;;3.20;;
80707;SDS011;70222;49.204;-122.940;2023-10-13T01:40:02;3.60;;;2.70;;
80707;SDS011;70222;49.204;-122.940;2023-10-13T01:42:29;5.47;;;3.15;;
80707;SDS011;70222;49.204;-122.940;2023-10-13T01:44:55;6.53;;;3.17;;
80707;SDS011;70222;49.204;-122.940;2023-10-13T01:47:31;5.22;;;3.17;;
80707;SDS011;70222;49.204;-122.940;2023-10-13T01:50:01;5.15;;;3.10;;
80707;SDS011;70222;49.204;-122.940;2023-10-13T01:52:47;6.30;;;3.55;;
80707;SDS011;70222;49.204;-122.940;2023-10-13T01:55:13;4.28;;;3.55;;
80707;SDS011;70222;49.204;-122.940;2023-10-13T01:57:39;7.30;;;4.22;;
80707;SDS011;70222;49.204;-122.940;2023-10-13T02:00:08;7.60;;;3.67;;
80707;SDS011;70222;49.204;-122.940;2023-10-13T02:02:44;8.80;;;4.50;;
80707;SDS011;70222;49.204;-122.940;2023-10-13T02:05:11;7.85;;;4.90;;
80707;SDS011;70222;49.204;-122.940;2023-10-13T02:07:42;7.35;;;4.70;;
80707;SDS011;70222;49.204;-122.940;2023-10-13T02:10:13;8.93;;;6.07;;
80707;SDS011;70222;49.204;-122.940;2023-10-13T02:12:39;6.22;;;4.20;;
80707;SDS011;70222;49.204;-122.940;2023-10-13T02:15:12;7.32;;;4.63;;
80707;SDS011;70222;49.204;-122.940;2023-10-13T02:17:46;6.18;;;4.43;;
80707;SDS011;70222;49.204;-122.940;2023-10-13T02:20:17;6.93;;;4.55;;
80707;SDS011;70222;49.204;-122.940;2023-10-13T02:22:55;5.93;;;4.72;;
80707;SDS011;70222;49.204;-122.940;2023-10-13T02:25:21;6.78;;;3.97;;
80707;SDS011;70222;49.204;-122.940;2023-10-13T02:31:28;6.18;;;4.10;;
80707;SDS011;70222;49.204;-122.940;2023-10-13T02:33:54;6.55;;;3.95;;
80707;SDS011;70222;49.204;-122.940;2023-10-13T02:36:20;8.88;;;4.22;;
80707;SDS011;70222;49.204;-122.940;2023-10-13T02:39:04;6.65;;;4.22;;
80707;SDS011;70222;49.204;-122.940;2023-10-13T02:41:34;6.78;;;4.32;;
80707;SDS011;70222;49.204;-122.940;2023-10-13T02:44:05;6.18;;;4.03;;
80707;SDS011;70222;49.204;-122.940;2023-10-13T02:46:32;9.25;;;4.90;;
80707;SDS011;70222;49.204;-122.940;2023-10-13T02:49:02;6.72;;;3.95;;
80707;SDS011;70222;49.204;-122.940;2023-10-13T02:51:36;7.07;;;4.70;;
80707;SDS011;70222;49.204;-122.940;2023-10-13T02:54:03;7.18;;;3.80;;
80707;SDS011;70222;49.204;-122.940;2023-10-13T02:56:36;8.77;;;4.55;;
80707;SDS011;70222;49.204;-122.940;2023-10-13T02:59:03;4.68;;;3.60;;
80707;SDS011;70222;49.204;-122.940;2023-10-13T03:01:32;5.47;;;3.83;;
80707;SDS011;70222;49.204;-122.940;2023-10-13T03:04:02;4.57;;;3.60;;
80707;SDS011;70222;49.204;-122.940;2023-10-13T03:06:29;6.95;;;4.57;;
80707;SDS011;70222;49.204;-122.940;2023-10-13T03:08:59;5.13;;;3.58;;
80707;SDS011;70222;49.204;-122.940;2023-10-13T03:11:44;5.25;;;3.53;;
80707;SDS011;70222;49.204;-122.940;2023-10-13T03:14:14;5.45;;;3.50;;
80707;SDS011;70222;49.204;-122.940;2023-10-13T03:16:57;5.40;;;3.40;;
80707;SDS011;70222;49.204;-122.940;2023-10-13T03:19:43;6.32;;;3.70;;
80707;SDS011;70222;49.204;-122.940;2023-10-13T03:22:16;6.20;;;3.92;;
80707;SDS011;70222;49.204;-122.940;2023-10-13T03:24:43;5.40;;;3.75;;
80707;SDS011;70222;49.204;-122.940;2023-10-13T03:27:18;6.57;;;4.05;;
80707;SDS011;70222;49.204;-122.940;2023-10-13T03:30:04;5.78;;;4.00;;
80707;SDS011;70222;49.204;-122.940;2023-10-13T03:32:36;5.68;;;4.57;;
80707;SDS011;70222;49.204;-122.940;2023-10-13T03:35:08;6.43;;;3.50;;
80707;SDS011;70222;49.204;-122.940;2023-10-13T03:37:37;6.38;;;3.72;;
80707;SDS011;70222;49.204;-122.940;2023-10-13T03:40:08;6.43;;;3.03;;
80707;SDS011;70222;49.204;-122.940;2023-10-13T03:42:51;6.53;;;3.42;;
80707;SDS011;70222;49.204;-122.940;2023-10-13T03:48:13;6.57;;;3.30;;
80707;SDS011;70222;49.204;-122.940;2023-10-13T03:50:56;7.88;;;3.20;;
80707;SDS011;70222;49.204;-122.940;2023-10-13T03:53:36;5.45;;;3.38;;
80707;SDS011;70222;49.204;-122.940;2023-10-13T03:56:18;4.68;;;3.22;;
80707;SDS011;70222;49.204;-122.940;2023-10-13T03:59:14;5.18;;;3.08;;
80707;SDS011;70222;49.204;-122.940;2023-10-13T04:01:40;5.00;;;3.22;;
80707;SDS011;70222;49.204;-122.940;2023-10-13T04:04:16;5.63;;;2.97;;
80707;SDS011;70222;49.204;-122.940;2023-10-13T04:06:57;5.55;;;2.80;;
80707;SDS011;70222;49.204;-122.940;2023-10-13T04:09:46;6.05;;;3.13;;
80707;SDS011;70222;49.204;-122.940;2023-10-13T04:12:12;4.22;;;3.13;;
80707;SDS011;70222;49.204;-122.940;2023-10-13T04:14:44;4.65;;;2.50;;
80707;SDS011;70222;49.204;-122.940;2023-10-13T04:17:23;6.25;;;2.92;;
80707;SDS011;70222;49.204;-122.940;2023-10-13T04:19:52;4.68;;;2.70;;
80707;SDS011;70222;49.204;-122.940;2023-10-13T04:22:32;4.18;;;2.72;;
80707;SDS011;70222;49.204;-122.940;2023-10-13T04:25:22;4.82;;;3.22;;
80707;SDS011;70222;49.204;-122.940;2023-10-13T04:30:41;4.72;;;3.03;;
80707;SDS011;70222;49.204;-122.940;2023-10-13T04:33:26;6.15;;;3.13;;
80707;SDS011;70222;49.204;-122.940;2023-10-13T04:36:09;3.90;;;2.53;;
80707;SDS011;70222;49.204;-122.940;2023-10-13T04:38:46;4.07;;;2.50;;
80707;SDS011;70222;49.204;-122.940;2023-10-13T04:41:40;7.32;;;3.35;;
80707;SDS011;70222;49.204;-122.940;2023-10-13T04:44:23;3.80;;;2.90;;
80707;SDS011;70222;49.204;-122.940;2023-10-13T04:46:56;6.90;;;3.70;;
80707;SDS011;70222;49.204;-122.940;2023-10-13T04:49:26;5.65;;;2.80;;
80707;SDS011;70222;49.204;-122.940;2023-10-13T04:51:58;6.38;;;3.88;;
80707;SDS011;70222;49.204;-122.940;2023-10-13T04:54:26;8.05;;;4.25;;
80707;SDS011;70222;49.204;-122.940;2023-10-13T05:00:35;6.93;;;3.40;;
80707;SDS011;70222;49.204;-122.940;2023-10-13T05:03:19;5.28;;;2.97;;
80707;SDS011;70222;49.204;-122.940;2023-10-13T05:06:05;4.68;;;2.97;;
80707;SDS011;70222;49.204;-122.940;2023-10-13T05:08:50;5.13;;;3.40;;
80707;SDS011;70222;49.204;-122.940;2023-10-13T05:11:34;4.32;;;3.00;;
80707;SDS011;70222;49.204;-122.940;2023-10-13T05:14:19;5.15;;;3.00;;
80707;SDS011;70222;49.204;-122.940;2023-10-13T05:17:03;5.95;;;2.95;;
80707;SDS011;70222;49.204;-122.940;2023-10-13T05:19:48;5.20;;;2.83;;
80707;SDS011;70222;49.204;-122.940;2023-10-13T05:22:32;4.68;;;2.65;;
80707;SDS011;70222;49.204;-122.940;2023-10-13T05:25:16;6.72;;;2.67;;
80707;SDS011;70222;49.204;-122.940;2023-10-13T05:28:01;7.47;;;3.30;;
80707;SDS011;70222;49.204;-122.940;2023-10-13T05:30:45;6.03;;;2.88;;
80707;SDS011;70222;49.204;-122.940;2023-10-13T05:33:30;5.78;;;2.90;;
80707;SDS011;70222;49.204;-122.940;2023-10-13T05:36:14;5.45;;;2.75;;
80707;SDS011;70222;49.204;-122.940;2023-10-13T05:38:58;3.35;;;2.60;;
80707;SDS011;70222;49.204;-122.940;2023-10-13T05:41:43;4.57;;;2.80;;
80707;SDS011;70222;49.204;-122.940;2023-10-13T05:44:27;3.42;;;2.40;;
80707;SDS011;70222;49.204;-122.940;2023-10-13T05:47:03;4.50;;;2.65;;
80707;SDS011;70222;49.204;-122.940;2023-10-13T05:49:48;3.22;;;2.60;;
80707;SDS011;70222;49.204;-122.940;2023-10-13T05:52:30;6.32;;;2.63;;
80707;SDS011;70222;49.204;-122.940;2023-10-13T05:55:26;3.88;;;2.30;;
80707;SDS011;70222;49.204;-122.940;2023-10-13T05:58:11;4.03;;;2.47;;
80707;SDS011;70222;49.204;-122.940;2023-10-13T06:00:56;3.95;;;2.65;;
80707;SDS011;70222;49.204;-122.940;2023-10-13T06:03:41;4.13;;;2.15;;
80707;SDS011;70222;49.204;-122.940;2023-10-13T06:06:25;4.10;;;2.53;;
80707;SDS011;70222;49.204;-122.940;2023-10-13T06:09:10;3.58;;;2.40;;
80707;SDS011;70222;49.204;-122.940;2023-10-13T06:11:54;3.83;;;2.10;;
80707;SDS011;70222;49.204;-122.940;2023-10-13T06:14:39;3.33;;;2.47;;
80707;SDS011;70222;49.204;-122.940;2023-10-13T06:17:23;4.63;;;2.95;;
80707;SDS011;70222;49.204;-122.940;2023-10-13T06:20:08;2.88;;;2.55;;
80707;SDS011;70222;49.204;-122.940;2023-10-13T06:22:53;2.95;;;2.20;;
80707;SDS011;70222;49.204;-122.940;2023-10-13T06:25:38;4.75;;;2.50;;
80707;SDS011;70222;49.204;-122.940;2023-10-13T06:28:22;3.88;;;2.55;;
80707;SDS011;70222;49.204;-122.940;2023-10-13T06:31:07;3.92;;;2.40;;
80707;SDS011;70222;49.204;-122.940;2023-10-13T06:33:37;4.78;;;2.88;;
80707;SDS011;70222;49.204;-122.940;2023-10-13T06:36:10;3.75;;;2.80;;
80707;SDS011;70222;49.204;-122.940;2023-10-13T06:38:36;3.95;;;2.92;;
80707;SDS011;70222;49.204;-122.940;2023-10-13T06:41:03;4.38;;;2.90;;
80707;SDS011;70222;49.204;-122.940;2023-10-13T06:43:35;2.92;;;2.35;;
80707;SDS011;70222;49.204;-122.940;2023-10-13T06:46:11;4.38;;;2.35;;
80707;SDS011;70222;49.204;-122.940;2023-10-13T06:48:49;3.78;;;2.20;;
80707;SDS011;70222;49.204;-122.940;2023-10-13T06:51:19;4.55;;;2.35;;
80707;SDS011;70222;49.204;-122.940;2023-10-13T06:53:50;3.70;;;2.35;;
80707;SDS011;70222;49.204;-122.940;2023-10-13T06:56:22;4.25;;;2.20;;
80707;SDS011;70222;49.204;-122.940;2023-10-13T06:58:52;3.70;;;2.40;;
80707;SDS011;70222;49.204;-122.940;2023-10-13T07:01:27;2.70;;;1.98;;
80707;SDS011;70222;49.204;-122.940;2023-10-13T07:03:53;3.85;;;2.10;;
80707;SDS011;70222;49.204;-122.940;2023-10-13T07:06:21;3.08;;;2.30;;
80707;SDS011;70222;49.204;-122.940;2023-10-13T07:08:47;3.63;;;1.90;;
80707;SDS011;70222;49.204;-122.940;2023-10-13T07:11:25;2.90;;;1.98;;
80707;SDS011;70222;49.204;-122.940;2023-10-13T07:14:07;3.30;;;2.13;;
80707;SDS011;70222;49.204;-122.940;2023-10-13T07:16:42;3.92;;;2.80;;
80707;SDS011;70222;49.204;-122.940;2023-10-13T07:19:12;3.45;;;1.98;;
80707;SDS011;70222;49.204;-122.940;2023-10-13T07:21:43;3.80;;;2.45;;
80707;SDS011;70222;49.204;-122.940;2023-10-13T07:24:13;3.45;;;2.03;;
80707;SDS011;70222;49.204;-122.940;2023-10-13T07:26:39;3.85;;;3.42;;
80707;SDS011;70222;49.204;-122.940;2023-10-13T07:29:09;2.30;;;1.95;;
80707;SDS011;70222;49.204;-122.940;2023-10-13T07:34:03;4.00;;;2.20;;
80707;SDS011;70222;49.204;-122.940;2023-10-13T07:36:40;4.57;;;2.20;;
80707;SDS011;70222;49.204;-122.940;2023-10-13T07:39:08;2.60;;;1.80;;
80707;SDS011;70222;49.204;-122.940;2023-10-13T07:41:47;2.83;;;2.10;;
80707;SDS011;70222;49.204;-122.940;2023-10-13T07:46:57;2.60;;;2.00;;
80707;SDS011;70222;49.204;-122.940;2023-10-13T07:49:35;3.22;;;2.00;;
80707;SDS011;70222;49.204;-122.940;2023-10-13T07:52:09;3.15;;;2.00;;
80707;SDS011;70222;49.204;-122.940;2023-10-13T07:54:46;2.58;;;1.80;;
80707;SDS011;70222;49.204;-122.940;2023-10-13T07:57:17;2.65;;;1.75;;
80707;SDS011;70222;49.204;-122.940;2023-10-13T07:59:44;2.97;;;1.77;;
80707;SDS011;70222;49.204;-122.940;2023-10-13T08:02:16;4.07;;;2.28;;
80707;SDS011;70222;49.204;-122.940;2023-10-13T08:05:02;2.97;;;1.88;;
80707;SDS011;70222;49.204;-122.940;2023-10-13T08:07:34;4.32;;;1.80;;
80707;SDS011;70222;49.204;-122.940;2023-10-13T08:10:05;3.25;;;2.13;;
80707;SDS011;70222;49.204;-122.940;2023-10-13T08:12:35;3.60;;;2.03;;
80707;SDS011;70222;49.204;-122.940;2023-10-13T08:15:03;6.20;;;2.38;;
80707;SDS011;70222;49.204;-122.940;2023-10-13T08:17:58;2.80;;;1.83;;
80707;SDS011;70222;49.204;-122.940;2023-10-13T08:20:28;3.30;;;2.20;;
80707;SDS011;70222;49.204;-122.940;2023-10-13T08:22:55;3.45;;;2.25;;
80707;SDS011;70222;49.204;-122.940;2023-10-13T08:25:41;3.33;;;1.98;;
80707;SDS011;70222;49.204;-122.940;2023-10-13T08:28:25;2.92;;;2.20;;
80707;SDS011;70222;49.204;-122.940;2023-10-13T08:31:06;3.17;;;2.30;;
80707;SDS011;70222;49.204;-122.940;2023-10-13T08:33:48;3.35;;;2.25;;
80707;SDS011;70222;49.204;-122.940;2023-10-13T08:36:14;3.97;;;2.13;;
80707;SDS011;70222;49.204;-122.940;2023-10-13T08:38:52;4.18;;;2.40;;
80707;SDS011;70222;49.204;-122.940;2023-10-13T08:41:20;4.95;;;2.30;;
80707;SDS011;70222;49.204;-122.940;2023-10-13T08:43:50;3.53;;;2.20;;
80707;SDS011;70222;49.204;-122.940;2023-10-13T08:46:16;3.47;;;2.30;;
80707;SDS011;70222;49.204;-122.940;2023-10-13T08:48:57;5.07;;;3.28;;
80707;SDS011;70222;49.204;-122.940;2023-10-13T08:51:40;3.65;;;2.50;;
80707;SDS011;70222;49.204;-122.940;2023-10-13T08:54:14;3.03;;;2.40;;
80707;SDS011;70222;49.204;-122.940;2023-10-13T08:57:06;3.20;;;2.20;;
80707;SDS011;70222;49.204;-122.940;2023-10-13T08:59:45;5.63;;;2.22;;
80707;SDS011;70222;49.204;-122.940;2023-10-13T09:02:24;5.82;;;2.55;;
80707;SDS011;70222;49.204;-122.940;2023-10-13T09:05:16;3.30;;;2.10;;
80707;SDS011;70222;49.204;-122.940;2023-10-13T09:08:05;3.50;;;1.90;;
80707;SDS011;70222;49.204;-122.940;2023-10-13T09:10:35;3.63;;;2.03;;
80707;SDS011;70222;49.204;-122.940;2023-10-13T09:13:10;4.53;;;1.77;;
80707;SDS011;70222;49.204;-122.940;2023-10-13T09:15:44;2.63;;;1.80;;
80707;SDS011;70222;49.204;-122.940;2023-10-13T09:18:26;4.13;;;1.80;;
80707;SDS011;70222;49.204;-122.940;2023-10-13T09:21:11;3.72;;;1.70;;
80707;SDS011;70222;49.204;-122.940;2023-10-13T09:24:16;2.70;;;1.90;;
80707;SDS011;70222;49.204;-122.940;2023-10-13T09:26:55;3.80;;;1.92;;
80707;SDS011;70222;49.204;-122.940;2023-10-13T09:29:21;3.67;;;1.60;;
80707;SDS011;70222;49.204;-122.940;2023-10-13T09:31:59;2.25;;;1.67;;
80707;SDS011;70222;49.204;-122.940;2023-10-13T09:34:29;1.50;;;1.35;;
80707;SDS011;70222;49.204;-122.940;2023-10-13T09:36:59;1.58;;;1.40;;
80707;SDS011;70222;49.204;-122.940;2023-10-13T09:39:28;3.78;;;1.70;;
80707;SDS011;70222;49.204;-122.940;2023-10-13T09:42:26;2.75;;;1.75;;
80707;SDS011;70222;49.204;-122.940;2023-10-13T09:44:52;2.03;;;1.60;;
80707;SDS011;70222;49.204;-122.940;2023-10-13T09:47:24;1.90;;;1.60;;
80707;SDS011;70222;49.204;-122.940;2023-10-13T09:49:57;2.55;;;1.60;;
80707;SDS011;70222;49.204;-122.940;2023-10-13T09:52:30;2.13;;;1.48;;
80707;SDS011;70222;49.204;-122.940;2023-10-13T09:55:10;2.58;;;1.50;;
80707;SDS011;70222;49.204;-122.940;2023-10-13T10:01:00;2.78;;;1.63;;
80707;SDS011;70222;49.204;-122.940;2023-10-13T10:03:44;4.22;;;1.85;;
80707;SDS011;70222;49.204;-122.940;2023-10-13T10:06:21;1.95;;;1.67;;
80707;SDS011;70222;49.204;-122.940;2023-10-13T10:09:03;4.10;;;1.77;;
80707;SDS011;70222;49.204;-122.940;2023-10-13T10:22:13;2.65;;;1.58;;
80707;SDS011;70222;49.204;-122.940;2023-10-13T10:24:55;2.53;;;1.50;;
80707;SDS011;70222;49.204;-122.940;2023-10-13T10:27:27;2.72;;;1.92;;
80707;SDS011;70222;49.204;-122.940;2023-10-13T10:29:57;2.50;;;1.80;;
80707;SDS011;70222;49.204;-122.940;2023-10-13T10:32:33;2.33;;;1.60;;
80707;SDS011;70222;49.204;-122.940;2023-10-13T10:35:04;1.88;;;1.48;;
80707;SDS011;70222;49.204;-122.940;2023-10-13T10:37:39;3.38;;;1.75;;
80707;SDS011;70222;49.204;-122.940;2023-10-13T10:40:15;3.70;;;1.70;;
80707;SDS011;70222;49.204;-122.940;2023-10-13T10:43:18;2.72;;;1.60;;
80707;SDS011;70222;49.204;-122.940;2023-10-13T10:45:51;3.50;;;2.22;;
80707;SDS011;70222;49.204;-122.940;2023-10-13T10:48:17;4.15;;;1.90;;
80707;SDS011;70222;49.204;-122.940;2023-10-13T10:50:53;4.40;;;2.03;;
80707;SDS011;70222;49.204;-122.940;2023-10-13T10:53:23;2.70;;;2.20;;
80707;SDS011;70222;49.204;-122.940;2023-10-13T10:56:05;2.22;;;1.75;;
80707;SDS011;70222;49.204;-122.940;2023-10-13T10:58:45;1.80;;;1.52;;
80707;SDS011;70222;49.204;-122.940;2023-10-13T11:01:23;2.22;;;1.75;;
80707;SDS011;70222;49.204;-122.940;2023-10-13T11:03:54;2.97;;;1.77;;
80707;SDS011;70222;49.204;-122.940;2023-10-13T11:06:27;6.90;;;2.42;;
80707;SDS011;70222;49.204;-122.940;2023-10-13T11:09:06;4.63;;;2.00;;
80707;SDS011;70222;49.204;-122.940;2023-10-13T11:11:46;4.35;;;1.92;;
80707;SDS011;70222;49.204;-122.940;2023-10-13T11:14:33;2.90;;;1.95;;
80707;SDS011;70222;49.204;-122.940;2023-10-13T11:16:59;3.13;;;2.15;;
80707;SDS011;70222;49.204;-122.940;2023-10-13T11:19:35;3.50;;;1.85;;
80707;SDS011;70222;49.204;-122.940;2023-10-13T11:24:58;3.08;;;1.58;;
80707;SDS011;70222;49.204;-122.940;2023-10-13T11:27:31;2.25;;;1.80;;
80707;SDS011;70222;49.204;-122.940;2023-10-13T11:30:24;3.90;;;1.80;;
80707;SDS011;70222;49.204;-122.940;2023-10-13T11:33:05;2.47;;;1.73;;
80707;SDS011;70222;49.204;-122.940;2023-10-13T11:35:35;2.83;;;2.00;;
80707;SDS011;70222;49.204;-122.940;2023-10-13T11:41:03;3.42;;;1.98;;
80707;SDS011;70222;49.204;-122.940;2023-10-13T11:43:36;2.15;;;1.50;;
80707;SDS011;70222;49.204;-122.940;2023-10-13T11:46:15;2.35;;;1.45;;
80707;SDS011;70222;49.204;-122.940;2023-10-13T11:49:04;2.70;;;1.95;;
80707;SDS011;70222;49.204;-122.940;2023-10-13T11:51:44;2.15;;;1.65;;
80707;SDS011;70222;49.204;-122.940;2023-10-13T11:54:17;1.65;;;1.48;;
80707;SDS011;70222;49.204;-122.940;2023-10-13T11:56:45;4.03;;;1.95;;
80707;SDS011;70222;49.204;-122.940;2023-10-13T11:59:11;2.47;;;1.90;;
80707;SDS011;70222;49.204;-122.940;2023-10-13T12:01:50;1.98;;;1.50;;
80707;SDS011;70222;49.204;-122.940;2023-10-13T12:04:35;2.33;;;1.50;;
80707;SDS011;70222;49.204;-122.940;2023-10-13T12:07:08;3.05;;;1.70;;
80707;SDS011;70222;49.204;-122.940;2023-10-13T12:09:43;2.40;;;1.42;;
80707;SDS011;70222;49.204;-122.940;2023-10-13T12:12:28;2.63;;;1.40;;
80707;SDS011;70222;49.204;-122.940;2023-10-13T12:14:56;2.25;;;1.52;;
80707;SDS011;70222;49.204;-122.940;2023-10-13T12:20:03;2.17;;;1.40;;
80707;SDS011;70222;49.204;-122.940;2023-10-13T12:22:36;2.03;;;1.60;;
80707;SDS011;70222;49.204;-122.940;2023-10-13T12:25:08;2.67;;;1.60;;
80707;SDS011;70222;49.204;-122.940;2023-10-13T12:27:53;2.40;;;1.42;;
80707;SDS011;70222;49.204;-122.940;2023-10-13T12:30:23;1.95;;;1.50;;
80707;SDS011;70222;49.204;-122.940;2023-10-13T12:33:13;3.03;;;1.67;;
80707;SDS011;70222;49.204;-122.940;2023-10-13T12:35:42;2.00;;;1.35;;
80707;SDS011;70222;49.204;-122.940;2023-10-13T12:38:26;3.03;;;1.55;;
80707;SDS011;70222;49.204;-122.940;2023-10-13T12:41:17;4.40;;;1.50;;
80707;SDS011;70222;49.204;-122.940;2023-10-13T12:44:02;5.35;;;1.40;;
80707;SDS011;70222;49.204;-122.940;2023-10-13T12:52:21;1.77;;;1.20;;
80707;SDS011;70222;49.204;-122.940;2023-10-13T12:54:59;2.13;;;1.23;;
80707;SDS011;70222;49.204;-122.940;2023-10-13T12:57:31;2.17;;;1.50;;
80707;SDS011;70222;49.204;-122.940;2023-10-13T12:59:58;1.42;;;1.27;;
80707;SDS011;70222;49.204;-122.940;2023-10-13T13:02:25;2.40;;;1.60;;
80707;SDS011;70222;49.204;-122.940;2023-10-13T13:04:52;2.38;;;1.23;;
80707;SDS011;70222;49.204;-122.940;2023-10-13T13:07:40;1.98;;;1.45;;
80707;SDS011;70222;49.204;-122.940;2023-10-13T13:10:12;1.60;;;1.30;;
80707;SDS011;70222;49.204;-122.940;2023-10-13T13:12:42;1.88;;;1.40;;
80707;SDS011;70222;49.204;-122.940;2023-10-13T13:15:08;1.80;;;1.40;;
80707;SDS011;70222;49.204;-122.940;2023-10-13T13:17:38;1.88;;;1.35;;
80707;SDS011;70222;49.204;-122.940;2023-10-13T13:20:08;3.38;;;1.60;;
80707;SDS011;70222;49.204;-122.940;2023-10-13T13:22:51;2.55;;;1.52;;
80707;SDS011;70222;49.204;-122.940;2023-10-13T13:25:19;2.20;;;1.65;;
80707;SDS011;70222;49.204;-122.940;2023-10-13T13:27:51;1.80;;;1.23;;
80707;SDS011;70222;49.204;-122.940;2023-10-13T13:30:17;2.50;;;1.65;;
80707;SDS011;70222;49.204;-122.940;2023-10-13T13:32:45;1.33;;;1.20;;
80707;SDS011;70222;49.204;-122.940;2023-10-13T13:35:13;2.20;;;1.40;;
80707;SDS011;70222;49.204;-122.940;2023-10-13T13:37:40;1.95;;;1.50;;
80707;SDS011;70222;49.204;-122.940;2023-10-13T13:40:09;1.80;;;1.52;;
80707;SDS011;70222;49.204;-122.940;2023-10-13T13:42:40;2.80;;;1.50;;
80707;SDS011;70222;49.204;-122.940;2023-10-13T13:45:14;1.73;;;1.40;;
80707;SDS011;70222;49.204;-122.940;2023-10-13T13:47:50;1.80;;;1.25;;
80707;SDS011;70222;49.204;-122.940;2023-10-13T13:50:21;1.92;;;1.52;;
80707;SDS011;70222;49.204;-122.940;2023-10-13T13:52:55;3.45;;;2.08;;
80707;SDS011;70222;49.204;-122.940;2023-10-13T13:55:22;2.30;;;1.50;;
80707;SDS011;70222;49.204;-122.940;2023-10-13T13:57:49;2.10;;;1.50;;
80707;SDS011;70222;49.204;-122.940;2023-10-13T14:00:16;2.92;;;1.50;;
80707;SDS011;70222;49.204;-122.940;2023-10-13T14:02:48;2.05;;;1.50;;
80707;SDS011;70222;49.204;-122.940;2023-10-13T14:05:14;2.30;;;1.60;;
80707;SDS011;70222;49.204;-122.940;2023-10-13T14:07:42;1.65;;;1.40;;
80707;SDS011;70222;49.204;-122.940;2023-10-13T14:10:14;2.78;;;1.65;;
80707;SDS011;70222;49.204;-122.940;2023-10-13T14:13:19;2.28;;;1.65;;
80707;SDS011;70222;49.204;-122.940;2023-10-13T14:15:47;2.65;;;1.58;;
80707;SDS011;70222;49.204;-122.940;2023-10-13T14:18:13;2.08;;;1.45;;
80707;SDS011;70222;49.204;-122.940;2023-10-13T14:20:42;3.78;;;1.40;;
80707;SDS011;70222;49.204;-122.940;2023-10-13T14:23:08;5.47;;;1.60;;
80707;SDS011;70222;49.204;-122.940;2023-10-13T14:25:40;2.55;;;1.70;;
80707;SDS011;70222;49.204;-122.940;2023-10-13T14:28:10;2.70;;;1.60;;
80707;SDS011;70222;49.204;-122.940;2023-10-13T14:30:43;2.22;;;1.70;;
80707;SDS011;70222;49.204;-122.940;2023-10-13T14:33:09;2.78;;;1.60;;
80707;SDS011;70222;49.204;-122.940;2023-10-13T14:35:36;2.03;;;1.42;;
80707;SDS011;70222;49.204;-122.940;2023-10-13T14:38:02;3.40;;;2.10;;
80707;SDS011;70222;49.204;-122.940;2023-10-13T14:40:29;2.40;;;1.60;;
80707;SDS011;70222;49.204;-122.940;2023-10-13T14:42:55;4.85;;;2.13;;
80707;SDS011;70222;49.204;-122.940;2023-10-13T14:45:21;4.13;;;2.40;;
80707;SDS011;70222;49.204;-122.940;2023-10-13T14:47:47;2.80;;;1.90;;
80707;SDS011;70222;49.204;-122.940;2023-10-13T14:50:13;2.70;;;1.70;;
80707;SDS011;70222;49.204;-122.940;2023-10-13T14:52:45;2.65;;;1.73;;
80707;SDS011;70222;49.204;-122.940;2023-10-13T14:55:12;2.38;;;1.80;;
80707;SDS011;70222;49.204;-122.940;2023-10-13T15:01:09;3.45;;;2.50;;
80707;SDS011;70222;49.204;-122.940;2023-10-13T15:03:50;4.05;;;1.98;;
80707;SDS011;70222;49.204;-122.940;2023-10-13T15:06:24;4.22;;;2.63;;
80707;SDS011;70222;49.204;-122.940;2023-10-13T15:08:54;4.13;;;2.42;;
80707;SDS011;70222;49.204;-122.940;2023-10-13T15:11:24;3.25;;;2.22;;
80707;SDS011;70222;49.204;-122.940;2023-10-13T15:14:03;5.00;;;2.28;;
80707;SDS011;70222;49.204;-122.940;2023-10-13T15:16:32;3.40;;;2.10;;
80707;SDS011;70222;49.204;-122.940;2023-10-13T15:19:01;3.08;;;2.08;;
80707;SDS011;70222;49.204;-122.940;2023-10-13T15:21:29;5.22;;;2.53;;
80707;SDS011;70222;49.204;-122.940;2023-10-13T15:24:06;4.05;;;2.38;;
80707;SDS011;70222;49.204;-122.940;2023-10-13T15:29:07;5.45;;;2.80;;
80707;SDS011;70222;49.204;-122.940;2023-10-13T15:31:42;7.43;;;2.60;;
80707;SDS011;70222;49.204;-122.940;2023-10-13T15:34:31;2.63;;;2.15;;
80707;SDS011;70222;49.204;-122.940;2023-10-13T15:36:58;4.55;;;2.65;;
80707;SDS011;70222;49.204;-122.940;2023-10-13T15:39:30;6.30;;;2.60;;
80707;SDS011;70222;49.204;-122.940;2023-10-13T15:41:57;3.28;;;2.30;;
80707;SDS011;70222;49.204;-122.940;2023-10-13T15:44:27;4.82;;;2.75;;
80707;SDS011;70222;49.204;-122.940;2023-10-13T15:46:57;7.43;;;3.88;;
80707;SDS011;70222;49.204;-122.940;2023-10-13T15:49:24;6.38;;;3.75;;